Terminal Aerodrome Forecast
Issued by NWS

Home | Current Version | Previous Version | Text Only | Print | Product List | Glossary On
Versions: 1 2 3 4 5 6 7 8 9 10 11 12 13 14 15
000
FTUS46 KOTX 152331
TAFCOE
TAF
KCOE 152331Z 1600/1624 25010G15KT P6SM VCSH SCT060 SCT080 BKN100
     FM160300 20008KT P6SM SCT070 SCT150
     FM160900 17005KT P6SM SCT080 BKN150
     FM161300 16006KT P6SM BKN070 OVC100
     FM161500 18005KT P6SM VCSH BKN030 OVC050
     FM161800 21008KT P6SM -SHRA BKN025 OVC050
      AMD LTD TO CLD VIS AND WIND=

USA.gov is the U.S. government's official web portal to all federal, state and local government web resources and services.